Datos de la estación

Estación Meteorológica de Palma del Rio

Provincia: Córdoba
Código de Estación: 9
Primer día registrado: 15-03-2007
Último día registrado: 15-08-2022

Datos Localización

Latitud: 37º 43' 32'' N
Longitud: 05º 13' 37'' W
Altitud: 58

Coordenadas UTM

X: 303720
Y: 4177720

Fecha de Medida
15-08-2022
Día Juliano
227
Temp. Máxima (ºC)
33.8
Velocidad Viento Media (m/s)
1.9
Hora Temp. Máxima
15:38
Dirección Viento Media (º)
242.3
Temp. Mínima (ºC)
15.9
Radiación (MJ/m2 d)
26.2
Hora Temp. Mínima
5:36
Precipitación (mm)
0.0
Temp. Media (ºC)
24.7
ETo (mm/dia)
6.7
Humedad Relativa Máxima (%)
80.3
Humedad Relativa Mínima (%)
17.9
Precipitación Acumulada (mm)
389.6
Humedad Relativa Media (%)
51.4
ETo Acumulada (mm)
1,242.5
Temperatura Máxima Humedad Máxima Dirección del Viento
Temperatura Mínima Humedad Mínima Precipitación
Temperatura Media Humedad Media ETo
HH:MM Temperatura Máxima Radiación Marcar Todas
HH:MM Temperatura Mínima Velocidad del Viento
 
Fecha Día Juliano Temp. Máxima (ºC) Hora Temp Máxima Temp. Mínima (ºC) Hora Temp Mínima Temp. Media (ºC) Humedad Relativa Máxima (%) Humedad Relativa Media (%) Humedad Relativa Mínima (%) Velocidad Viento Media (m/s) Dirección Viento Media (º) Radiación (MJ/m2 d) Precipitación (mm) ETo (mm/dia)
15-08-2022 227 33.8 15:38 15.9 5:36 24.7 80.3 51.4 17.9 1.9 242.3 26.2 0.0 6.7
14-08-2022 226 37.2 15:44 18.8 5:42 28.0 74.7 41.4 11.7 1.8 239.0 25.6 0.0 7.2
13-08-2022 225 33.2 15:16 22.6 23:42 27.4 82.9 60.8 36.1 1.2 38.8 12.2 2.8 3.8
12-08-2022 224 39.9 15:26 20.3 5:36 29.7 78.4 48.8 22.5 0.8 287.3 23.6 0.0 5.7
11-08-2022 223 36.2 15:44 20.2 3:38 27.9 77.8 52.5 29.1 1.3 238.9 26.4 0.0 6.3
10-08-2022 222 37.6 15:12 21.5 5:34 28.8 78.4 54.5 30.3 1.9 234.9 25.4 0.0 7.1
09-08-2022 221 37.4 16:44 16.6 5:34 27.3 79.5 50.0 27.0 1.1 259.6 21.1 0.0 5.5
08-08-2022 220 34.0 15:28 18.3 4:06 25.6 77.4 53.6 31.7 1.4 246.6 25.6 0.0 6.0
07-08-2022 219 36.2 16:04 18.0 5:40 27.1 81.4 50.2 22.8 1.7 248.5 28.0 0.0 7.0
06-08-2022 218 37.4 14:46 20.2 5:50 28.9 79.8 49.6 23.3 1.6 241.4 27.7 0.0 7.1
05-08-2022 217 38.6 15:14 18.9 5:16 29.2 81.4 47.6 20.9 1.4 251.2 27.9 0.0 7.0
04-08-2022 216 38.0 14:30 19.2 5:36 29.4 76.0 46.9 26.1 1.3 251.6 27.9 0.0 6.8
03-08-2022 215 41.7 14:34 20.3 5:28 31.1 72.3 37.8 11.1 1.4 238.8 28.2 0.0 7.6
02-08-2022 214 42.5 14:32 21.4 5:48 32.1 77.3 39.6 11.9 1.2 225.2 28.0 0.0 7.3
01-08-2022 213 40.7 15:50 22.7 5:38 31.7 76.4 46.8 21.8 1.5 259.3 28.0 0.0 7.6
31-07-2022 212 41.5 16:58 21.1 4:30 31.3 67.6 41.1 9.7 0.9 24.6 28.3 0.0 6.7
30-07-2022 211 39.8 16:00 23.0 2:56 30.5 60.7 37.6 14.9 1.2 226.9 23.6 0.0 6.5
29-07-2022 210 40.7 15:30 18.5 5:26 30.2 72.3 38.6 15.1 1.0 245.8 28.3 0.0 6.8
28-07-2022 209 38.3 15:22 17.5 4:52 27.8 77.1 44.8 14.3 1.2 248.9 28.8 0.0 6.9
27-07-2022 208 36.0 13:22 19.0 5:22 28.4 61.0 38.0 14.9 2.1 235.0 29.1 0.0 7.9
26-07-2022 207 41.2 15:42 18.5 5:40 30.7 59.5 31.2 14.3 1.6 233.4 28.7 0.0 8.0
25-07-2022 206 44.9 15:36 23.5 23:46 33.8 53.8 22.1 4.3 0.9 353.0 27.5 0.0 6.9
24-07-2022 205 45.2 16:00 19.2 4:52 31.8 58.0 25.9 5.4 0.9 330.6 27.5 0.0 7.0
23-07-2022 204 44.0 15:38 21.0 5:22 32.3 62.4 31.2 5.8 1.2 247.9 28.5 0.0 7.7
22-07-2022 203 42.3 15:12 22.3 5:18 32.5 70.0 34.8 10.8 1.1 247.8 28.2 0.0 7.2
21-07-2022 202 41.5 15:54 18.9 5:30 30.9 67.9 36.1 14.2 1.1 207.8 29.0 0.0 7.2
20-07-2022 201 41.7 15:44 16.1 5:04 29.7 72.7 33.2 7.1 0.7 192.1 30.0 0.0 6.4
19-07-2022 200 39.1 16:24 18.6 5:28 28.9 75.4 38.2 10.8 1.1 237.0 29.8 0.0 7.0
18-07-2022 199 39.4 16:18 20.1 5:38 30.1 63.6 39.5 21.6 1.6 271.3 27.9 0.0 7.6
17-07-2022 198 42.3 14:42 19.8 5:20 31.9 56.1 27.5 9.9 1.5 106.3 29.1 0.0 8.1
16-07-2022 197 42.7 15:26 19.5 5:28 31.9 56.8 26.6 9.2 1.5 102.1 29.2 0.0 8.2
15-07-2022 196 41.9 14:46 19.4 5:12 31.8 53.7 26.1 11.0 1.8 119.5 27.9 0.0 8.4
14-07-2022 195 44.1 14:48 21.2 5:34 32.3 49.7 22.6 8.4 1.4 85.9 28.6 0.0 8.3
13-07-2022 194 43.3 14:14 19.3 4:46 31.5 57.8 28.7 9.3 1.7 97.3 28.8 0.0 8.8
12-07-2022 193 42.4 15:12 19.3 3:08 30.7 56.7 28.1 9.7 1.7 96.6 25.3 0.0 8.3
11-07-2022 192 42.3 15:14 20.6 4:20 30.6 62.4 31.0 8.5 1.5 90.2 29.4 0.0 8.4
10-07-2022 191 42.3 15:26 19.1 3:54 31.4 57.5 30.4 11.2 1.5 126.6 29.8 0.0 8.3
09-07-2022 190 40.6 16:12 20.3 5:16 30.6 58.8 32.6 13.9 1.3 112.0 30.0 0.0 7.7
08-07-2022 189 41.3 16:32 20.6 5:12 31.1 76.1 38.4 11.0 1.3 100.2 29.9 0.0 7.8
07-07-2022 188 39.8 15:14 17.1 4:34 29.5 76.7 40.9 13.5 1.0 65.0 29.9 0.0 7.0
06-07-2022 187 36.6 16:06 16.3 4:42 25.8 83.8 52.2 21.6 1.1 224.2 29.2 0.0 6.7
05-07-2022 186 35.4 14:36 15.7 4:54 25.4 80.1 49.7 24.7 2.1 245.7 29.7 0.0 7.7
04-07-2022 185 35.4 15:12 14.9 4:58 25.0 82.6 49.2 16.4 1.2 251.6 29.2 0.0 6.7
03-07-2022 184 32.4 16:24 20.6 --:-- 25.9 75.4 57.3 36.1 2.4 247.6 24.1 0.0 6.6
02-07-2022 183 37.1 15:54 19.3 4:42 28.6 74.0 49.4 27.6 2.1 195.6 28.8 0.0 7.9
01-07-2022 182 38.0 15:24 13.3 5:20 26.4 72.8 40.0 13.4 1.4 141.7 30.7 0.0 7.6
30-06-2022 181 34.0 16:28 16.9 3:10 25.1 57.9 34.9 16.5 1.5 247.6 29.7 0.0 7.1
29-06-2022 180 36.0 15:30 14.9 3:40 25.8 67.9 34.9 10.4 1.5 258.5 31.2 0.0 7.5
28-06-2022 179 35.5 16:34 11.7 5:12 24.5 74.2 40.1 18.7 1.0 274.0 31.1 0.0 6.6
27-06-2022 178 33.0 16:08 11.9 4:36 22.6 70.1 38.5 11.7 1.1 240.4 31.6 0.0 6.5
26-06-2022 177 31.1 16:40 14.5 5:28 23.2 74.3 39.4 10.8 1.9 243.3 31.3 0.0 7.2
25-06-2022 176 32.2 15:02 13.8 5:06 23.7 80.5 48.1 20.8 1.9 229.8 30.9 0.0 7.1
24-06-2022 175 30.8 15:38 13.5 4:12 22.8 83.8 51.9 28.3 1.4 239.5 30.6 0.0 6.3
23-06-2022 174 29.1 14:32 14.0 4:36 21.6 83.7 55.5 30.6 1.8 233.5 25.5 0.0 5.8
22-06-2022 173 28.4 15:10 12.7 4:56 21.3 79.0 53.2 31.7 2.2 240.9 29.7 0.0 6.4
21-06-2022 172 30.8 14:04 14.2 2:38 21.9 78.7 47.6 15.9 2.1 234.1 25.4 0.0 6.7
20-06-2022 171 30.6 15:50 18.2 --:-- 23.8 75.2 51.6 21.5 2.6 233.4 26.8 0.0 7.2
19-06-2022 170 31.0 14:52 17.9 2:14 23.9 78.0 54.7 31.2 2.4 237.0 30.1 0.0 7.2
18-06-2022 169 35.2 15:44 17.8 5:20 26.9 76.4 44.7 26.6 2.2 242.2 28.4 0.0 7.6
17-06-2022 168 39.5 14:44 20.2 3:42 28.6 67.9 44.9 20.9 1.3 238.3 26.7 0.0 7.2
16-06-2022 167 37.5 15:02 21.8 5:18 28.4 73.2 49.5 28.3 1.6 242.4 25.5 0.0 7.0
15-06-2022 166 41.7 15:12 21.2 5:10 31.8 65.6 35.2 13.5 1.4 178.6 25.3 0.0 7.4
14-06-2022 165 39.9 15:16 17.6 4:14 29.8 66.3 35.6 15.7 0.9 278.4 27.2 0.0 6.5
13-06-2022 164 41.1 17:34 17.5 5:36 30.2 54.8 27.9 11.8 0.9 20.3 25.2 0.0 6.3
12-06-2022 163 42.4 15:04 17.4 4:08 29.8 54.4 25.8 6.8 1.5 86.4 28.9 0.0 8.4
11-06-2022 162 39.8 15:18 16.3 5:06 28.9 68.5 30.7 10.6 1.8 105.9 30.2 0.0 8.5
10-06-2022 161 38.8 14:28 19.2 5:18 29.4 75.8 39.8 17.9 1.4 145.3 30.0 0.0 7.6
09-06-2022 160 39.6 16:18 19.1 3:50 30.1 68.2 38.6 16.4 1.1 54.0 30.6 0.0 7.3
08-06-2022 159 35.3 15:54 15.9 4:56 26.6 81.7 46.0 24.5 1.2 308.5 28.3 0.0 6.5
07-06-2022 158 37.8 13:40 13.5 4:56 26.9 75.0 41.7 15.5 1.4 233.0 30.8 0.0 7.5
06-06-2022 157 36.6 15:54 12.7 4:42 25.3 82.5 42.7 14.3 1.0 233.4 30.0 0.0 6.6
05-06-2022 156 33.5 16:46 12.8 4:26 23.1 85.6 51.9 21.1 0.8 205.4 31.2 0.0 6.1
04-06-2022 155 28.7 15:56 12.4 4:02 20.8 87.6 57.2 30.4 1.8 234.6 28.5 0.0 6.0
03-06-2022 154 29.2 13:42 15.1 1:40 21.7 84.5 56.8 28.5 1.7 247.7 28.0 0.0 6.0
02-06-2022 153 28.8 16:22 14.9 5:22 22.0 86.4 56.0 26.5 1.7 242.1 26.5 0.0 5.8
01-06-2022 152 30.9 15:44 16.8 1:36 23.1 79.4 58.5 34.1 1.5 243.4 27.3 0.0 6.0
31-05-2022 151 32.6 15:32 12.5 3:14 22.4 85.2 52.3 21.2 1.4 253.1 30.6 0.0 6.6
30-05-2022 150 27.8 16:16 14.9 5:50 21.3 79.9 54.2 33.3 1.4 238.7 26.6 0.0 5.4
29-05-2022 149 28.4 14:56 16.5 00:24 21.3 80.6 57.3 36.0 2.3 240.3 26.9 0.0 6.1
28-05-2022 148 35.4 14:38 13.4 4:34 24.7 65.6 38.5 17.2 1.7 334.1 29.3 0.0 7.4
27-05-2022 147 35.7 15:26 12.2 4:40 24.2 76.9 39.1 12.4 1.4 80.5 30.9 0.0 7.2
26-05-2022 146 31.7 16:54 9.7 3:34 21.5 72.1 41.9 15.6 1.1 78.2 30.8 0.0 6.1
25-05-2022 145 29.2 16:08 11.1 5:04 20.5 61.8 35.7 14.3 1.0 60.4 29.4 0.0 5.6
24-05-2022 144 29.5 14:22 12.9 23:02 21.2 81.3 42.8 16.9 1.4 300.6 27.9 0.0 5.9
23-05-2022 143 31.8 16:26 13.6 5:22 23.0 90.1 59.8 31.9 1.4 233.4 29.5 0.0 6.2
22-05-2022 142 29.2 16:44 18.0 23:58 22.2 80.4 62.2 37.6 1.9 244.2 20.4 0.0 5.2
21-05-2022 141 37.4 13:06 16.7 4:24 26.2 77.8 50.1 17.7 1.8 248.2 21.9 0.0 7.0
20-05-2022 140 38.4 13:26 16.2 5:06 26.8 75.7 45.4 15.1 1.0 79.9 25.1 0.0 6.2
19-05-2022 139 38.0 15:14 14.8 5:20 26.7 83.0 43.7 15.4 1.3 80.9 27.7 0.0 6.9
18-05-2022 138 36.3 14:40 13.7 3:56 25.7 85.4 48.4 21.4 0.9 297.7 28.7 0.0 6.2
17-05-2022 137 34.8 15:40 12.3 5:08 24.1 88.2 53.1 21.8 0.6 58.9 29.9 0.0 5.7
16-05-2022 136 30.2 16:10 14.5 2:32 21.2 87.7 60.3 27.7 0.9 245.4 27.6 0.0 5.3
15-05-2022 135 27.8 15:00 15.3 1:42 20.9 86.0 63.7 36.5 1.3 238.4 24.0 0.0 4.9
14-05-2022 134 33.7 15:20 15.0 5:38 23.5 81.3 53.6 24.2 1.8 240.1 26.9 0.0 6.7
13-05-2022 133 34.4 16:04 13.9 4:48 23.9 84.4 50.9 20.6 0.8 41.1 28.6 0.0 5.8
12-05-2022 132 32.5 16:20 12.6 2:12 21.9 77.3 46.5 17.7 1.1 58.2 24.7 0.0 5.5
11-05-2022 131 32.3 14:44 12.2 5:08 22.2 80.2 41.9 16.3 1.4 95.2 27.7 0.0 6.2
10-05-2022 130 32.2 14:44 12.9 5:28 22.1 86.6 49.5 22.0 1.0 85.8 29.3 0.0 5.8
09-05-2022 129 33.0 17:04 12.7 4:54 22.3 90.3 57.1 19.0 0.7 55.5 29.0 0.0 5.5
08-05-2022 128 31.8 16:36 12.7 4:50 21.4 92.5 59.6 19.1 0.6 51.8 28.9 0.0 5.2
07-05-2022 127 30.8 15:02 10.4 5:36 21.0 92.3 56.4 19.8 0.8 93.7 29.2 0.0 5.3
06-05-2022 126 29.7 14:38 11.5 5:22 19.9 98.0 66.9 23.8 0.5 64.8 28.1 0.0 4.8
05-05-2022 125 26.9 15:42 9.4 5:36 18.2 100.0 70.9 36.2 0.7 114.6 28.4 0.2 4.7
04-05-2022 124 21.6 17:04 11.3 23:48 15.4 100.0 86.3 52.4 0.5 5.4 16.7 2.8 2.8
03-05-2022 123 22.8 14:40 12.3 --:-- 16.0 97.2 80.2 39.8 0.8 12.2 20.8 7.0 3.6
02-05-2022 122 24.0 15:20 8.5 3:48 16.0 90.9 69.6 36.0 1.5 227.6 25.8 5.6 4.6
01-05-2022 121 29.4 15:08 10.7 5:02 19.4 94.1 63.2 29.2 1.1 239.3 27.0 0.0 5.1
30-04-2022 120 28.2 16:34 9.3 4:46 18.2 94.8 64.9 22.6 0.5 56.3 28.0 0.0 4.5
29-04-2022 119 26.2 16:02 8.7 5:10 17.5 93.9 63.8 24.1 1.1 63.9 27.0 0.2 4.8
28-04-2022 118 22.9 12:38 8.8 4:38 15.4 95.0 76.9 36.6 0.7 34.2 22.7 3.0 3.6
27-04-2022 117 23.0 13:08 10.5 4:58 15.8 93.1 74.9 43.4 0.8 242.8 20.5 7.2 3.5
26-04-2022 116 23.8 14:38 9.5 4:36 17.2 94.7 66.0 33.1 1.0 220.3 23.9 0.0 4.1
25-04-2022 115 24.4 16:14 7.0 5:40 15.9 96.8 70.3 32.4 0.8 32.2 27.8 0.0 4.3
24-04-2022 114 21.1 16:54 9.6 5:42 14.8 98.2 75.4 41.8 0.7 184.9 25.3 0.0 3.7
23-04-2022 113 17.5 12:22 7.0 5:48 11.9 97.7 83.5 52.9 2.0 243.3 18.6 0.6 3.0
22-04-2022 112 15.7 14:56 10.0 23:34 12.8 100.0 90.3 70.9 2.9 220.9 6.4 31.6 1.6
21-04-2022 111 22.1 15:46 4.2 3:58 13.6 100.0 81.4 58.9 2.0 230.0 26.7 0.0 3.9
20-04-2022 110 18.7 16:06 5.8 --:-- 12.4 100.0 82.6 71.4 1.7 296.5 12.5 0.0 2.1
19-04-2022 109 n/d --:-- n/d --:-- n/d n/d n/d n/d 1.6 270.4 21.7 0.0 n/d
18-04-2022 108 n/d --:-- n/d --:-- n/d n/d n/d n/d 1.5 236.3 26.1 0.0 n/d
17-04-2022 107 n/d --:-- n/d --:-- n/d n/d n/d n/d 0.7 234.0 24.4 0.0 n/d
16-04-2022 106 n/d --:-- n/d --:-- n/d n/d n/d n/d 0.7 71.4 25.7 0.0 n/d
15-04-2022 105 27.6 16:08 9.4 6:00 18.6 99.8 84.8 69.7 1.1 67.2 24.9 0.0 4.1
14-04-2022 104 25.6 15:44 7.9 5:56 16.8 100.0 88.2 72.7 0.6 96.1 22.1 0.0 3.4
13-04-2022 103 22.7 15:36 9.0 5:30 15.1 100.0 73.1 49.2 0.8 250.0 22.7 0.2 3.5
12-04-2022 102 16.9 15:54 9.8 3:30 12.8 100.0 87.4 66.5 0.7 160.4 9.4 14.0 1.7
11-04-2022 101 23.8 12:32 7.3 6:12 15.0 100.0 83.1 63.2 2.1 232.0 22.3 4.0 3.6
10-04-2022 100 28.2 14:36 9.4 5:38 18.5 100.0 73.8 51.8 1.7 98.9 24.8 0.0 4.5
09-04-2022 99 24.3 16:42 7.3 4:48 15.3 100.0 75.8 48.5 0.6 13.3 23.4 0.0 3.5
08-04-2022 98 21.8 14:52 5.0 5:00 13.9 100.0 70.3 42.2 0.9 230.9 22.0 0.2 3.3
07-04-2022 97 21.2 16:38 5.7 1:28 12.9 100.0 79.5 44.9 0.6 282.8 19.5 0.0 2.8
06-04-2022 96 18.2 15:32 6.9 23:58 11.2 100.0 77.1 43.7 0.9 221.5 17.8 0.4 2.6
05-04-2022 95 10.1 17:06 7.5 5:04 8.6 100.0 90.9 64.6 1.9 49.4 4.0 16.6 1.1
04-04-2022 94 18.1 14:44 8.6 23:48 13.0 81.3 48.7 35.0 3.1 57.7 11.7 0.8 3.4
03-04-2022 93 23.7 14:16 3.6 00:28 12.0 72.9 41.1 14.9 1.9 56.6 20.7 0.0 4.7
02-04-2022 92 18.7 14:18 1.9 6:02 10.8 97.9 53.4 24.5 1.7 69.4 22.5 0.0 3.6
01-04-2022 91 20.1 16:22 5.7 6:18 12.8 100.0 61.7 34.2 1.2 266.3 20.2 0.0 3.2
31-03-2022 90 20.2 14:32 7.3 4:44 13.8 100.0 64.1 37.6 1.4 269.5 14.1 0.4 2.7
30-03-2022 89 21.4 15:18 11.7 23:52 15.7 100.0 68.5 37.8 1.7 258.4 16.4 0.2 3.2
29-03-2022 88 20.8 16:24 11.9 4:46 15.5 100.0 75.1 47.7 1.0 193.9 12.6 1.0 2.4
28-03-2022 87 20.9 12:52 11.1 7:00 15.9 88.4 59.0 41.3 1.2 77.6 13.5 0.0 2.7
27-03-2022 86 21.9 14:58 8.0 5:36 14.9 100.0 68.1 40.0 1.2 63.1 16.3 0.0 2.9
26-03-2022 85 n/d --:-- n/d --:-- n/d n/d n/d n/d 0.8 63.5 15.6 0.0 n/d
25-03-2022 84 n/d --:-- n/d --:-- n/d n/d n/d n/d 1.4 63.1 5.7 2.2 n/d
24-03-2022 83 n/d --:-- n/d --:-- n/d n/d n/d n/d 1.3 232.4 5.4 5.2 n/d
23-03-2022 82 21.0 9:46 11.8 6:54 13.9 100.0 80.9 46.8 1.6 45.5 4.4 15.2 1.9
22-03-2022 81 19.2 14:08 10.9 3:46 14.7 100.0 84.9 57.5 0.7 54.8 10.7 0.2 1.9
21-03-2022 80 18.7 11:18 10.9 4:46 14.1 100.0 90.5 61.4 1.1 188.7 8.1 1.6 1.7
20-03-2022 79 22.5 13:34 9.7 5:32 15.1 97.8 71.4 42.3 2.3 111.3 15.1 3.2 3.3
19-03-2022 78 20.4 15:14 8.2 6:20 14.2 98.6 72.2 44.5 1.3 67.2 15.8 0.0 2.7
18-03-2022 77 19.5 15:10 7.5 6:00 14.0 100.0 73.7 46.5 1.3 56.0 14.8 0.2 2.5
17-03-2022 76 18.5 14:12 9.9 23:08 14.0 100.0 83.3 53.7 0.8 42.0 6.4 2.0 1.5
16-03-2022 75 14.5 15:24 11.0 22:28 12.6 100.0 99.5 92.2 0.8 232.0 3.2 5.8 0.8
15-03-2022 74 15.9 20:30 9.4 3:24 12.2 100.0 95.0 69.7 0.8 58.8 3.7 7.0 1.0
14-03-2022 73 13.1 00:48 9.5 22:26 10.9 100.0 98.6 78.7 1.1 175.2 2.8 24.0 0.8
13-03-2022 72 19.2 14:50 8.4 6:50 13.6 100.0 81.7 39.8 0.8 45.1 18.0 5.2 2.5
12-03-2022 71 16.7 14:52 6.6 7:46 11.5 100.0 90.4 60.4 1.2 256.4 11.5 1.2 1.8
11-03-2022 70 17.0 11:12 9.9 23:02 12.6 100.0 92.8 71.7 1.5 218.4 3.2 12.2 1.1
10-03-2022 69 21.9 14:36 5.2 6:38 13.2 95.5 66.6 36.8 1.1 334.2 19.3 0.0 2.9
09-03-2022 68 22.0 15:08 5.8 1:38 12.8 99.5 68.2 31.9 1.0 37.6 19.2 0.0 2.8
08-03-2022 67 18.1 15:24 2.8 2:30 9.7 96.3 80.4 46.3 0.6 124.9 13.6 0.0 1.8
07-03-2022 66 19.5 14:50 4.6 7:14 12.5 100.0 66.6 38.1 1.5 224.9 14.8 0.0 2.5
06-03-2022 65 19.5 15:08 0.8 6:12 10.7 100.0 71.7 37.1 0.7 54.9 17.3 0.0 2.2
05-03-2022 64 17.3 12:26 3.4 2:54 10.0 100.0 69.9 33.6 0.8 260.6 14.3 0.0 2.0
04-03-2022 63 18.7 15:32 7.3 22:38 12.4 91.5 61.2 38.9 1.4 342.4 15.0 0.0 2.4
03-03-2022 62 20.1 13:20 3.9 5:48 10.8 100.0 78.7 29.9 1.7 245.9 10.0 4.4 2.6
02-03-2022 61 22.7 15:16 3.4 5:02 12.4 97.5 68.5 40.6 0.9 191.1 17.5 0.0 2.5
01-03-2022 60 22.5 15:32 3.7 6:30 12.3 96.4 67.4 31.6 0.8 54.7 18.0 0.0 2.5
28-02-2022 59 21.5 15:16 5.7 3:28 13.1 98.4 70.5 41.3 0.9 71.7 16.7 0.0 2.3
27-02-2022 58 21.0 13:32 10.5 --:-- 15.2 91.2 68.3 44.8 0.8 56.1 12.4 0.0 2.0
26-02-2022 57 21.1 13:40 8.4 7:22 14.8 99.5 73.6 46.8 1.4 74.0 12.5 0.0 2.2
25-02-2022 56 19.3 15:16 8.7 6:46 13.8 91.7 76.2 57.6 1.2 57.0 6.7 0.0 1.6
24-02-2022 55 21.6 13:52 5.4 4:56 12.9 78.9 54.6 23.5 0.9 48.6 10.5 0.0 2.2
23-02-2022 54 25.0 15:58 5.0 4:54 13.2 80.0 49.3 17.4 1.3 46.8 15.3 0.0 3.2
22-02-2022 53 25.8 15:54 2.4 5:16 12.8 90.0 51.9 14.9 1.2 70.9 17.5 0.0 3.2
21-02-2022 52 23.3 15:18 2.4 7:04 11.8 94.7 59.5 25.4 1.1 50.1 17.1 0.0 2.7
20-02-2022 51 21.9 15:32 5.0 23:42 13.7 88.3 65.4 34.8 1.0 62.8 16.1 0.0 2.3
19-02-2022 50 19.4 14:26 4.4 7:00 11.8 100.0 78.1 49.8 0.6 23.4 15.2 0.0 1.7
18-02-2022 49 22.3 15:02 3.0 6:10 12.0 100.0 76.9 40.2 1.2 243.9 15.8 0.0 2.4
17-02-2022 48 22.9 16:24 3.0 7:02 11.9 100.0 73.6 34.0 0.6 52.6 16.0 0.0 2.0
16-02-2022 47 20.3 14:06 0.5 6:08 9.5 98.6 70.3 38.1 0.7 146.5 14.7 0.0 1.8
15-02-2022 46 19.0 15:48 -0.8 5:22 8.1 100.0 69.2 29.1 0.6 91.8 15.9 0.0 1.7
14-02-2022 45 18.7 14:54 2.7 23:54 12.0 100.0 72.2 32.9 1.3 275.8 15.4 0.6 2.1
13-02-2022 44 18.3 15:08 4.6 6:26 11.5 100.0 82.7 56.4 0.7 256.8 8.8 0.0 1.3
12-02-2022 43 17.9 13:28 2.4 5:10 10.3 98.3 84.0 64.7 0.7 257.3 10.6 0.0 1.3
11-02-2022 42 22.5 16:06 2.4 7:14 11.0 98.1 71.1 34.0 0.4 94.2 13.5 0.0 1.5
10-02-2022 41 21.3 15:38 1.5 5:10 9.8 99.6 71.6 25.8 0.7 45.4 14.2 0.0 1.8
09-02-2022 40 20.1 15:50 2.9 7:40 10.2 100.0 72.6 35.8 1.0 46.6 14.3 0.0 1.9
08-02-2022 39 22.6 14:14 2.0 7:04 10.8 93.9 66.6 30.7 1.4 64.4 14.2 0.0 2.5
07-02-2022 38 22.2 15:50 2.2 7:28 10.8 100.0 68.2 20.3 1.0 57.9 14.4 0.2 2.2
06-02-2022 37 20.4 15:32 3.4 7:38 11.0 100.0 79.0 43.3 0.8 60.1 13.1 0.0 1.6
05-02-2022 36 19.7 15:44 5.4 7:54 11.6 100.0 81.5 42.8 0.4 25.0 12.6 0.0 1.3
04-02-2022 35 18.0 14:06 3.6 6:38 10.9 98.7 74.9 43.5 0.6 18.3 7.5 0.2 1.2
03-02-2022 34 21.9 15:56 1.4 3:44 9.9 95.9 70.1 30.3 0.7 44.4 12.8 0.0 1.7
02-02-2022 33 22.3 16:08 0.5 7:24 9.8 96.0 67.7 26.8 1.2 51.8 13.9 0.0 2.3
01-02-2022 32 18.5 15:18 -0.6 3:34 7.9 98.0 68.3 31.0 0.8 71.8 13.6 0.0 1.5
31-01-2022 31 21.5 15:10 1.2 7:48 8.8 94.4 68.6 27.2 0.6 56.5 12.1 0.0 1.5
30-01-2022 30 20.3 15:38 0.1 7:46 9.2 92.8 59.2 19.8 0.9 48.5 11.0 0.0 1.8
29-01-2022 29 20.7 14:50 1.1 7:26 9.3 96.5 61.6 19.0 1.1 59.6 12.2 0.0 2.0
28-01-2022 28 19.7 14:42 2.1 5:44 9.7 98.5 69.8 31.5 1.1 64.6 12.5 0.0 1.8
27-01-2022 27 18.0 14:52 5.1 22:12 12.2 95.6 66.2 40.7 1.1 58.9 7.4 0.0 1.4
26-01-2022 26 17.4 13:24 3.6 00:14 10.8 94.8 71.6 45.3 1.5 57.6 7.1 0.2 1.6
25-01-2022 25 17.4 14:54 1.9 7:50 9.7 100.0 74.1 38.6 0.8 55.9 11.0 0.0 1.3
24-01-2022 24 16.1 13:28 5.7 00:28 9.7 95.8 74.5 47.8 1.2 49.2 7.3 0.0 1.3
23-01-2022 23 17.6 15:30 2.8 2:06 8.9 96.8 75.6 43.9 1.5 56.0 10.6 0.0 1.6
22-01-2022 22 17.3 15:34 0.1 2:48 7.9 97.4 72.1 37.5 1.6 63.5 12.2 0.0 1.8
21-01-2022 21 16.1 15:46 -1.6 7:16 5.8 100.0 77.0 34.9 1.1 55.0 12.1 0.0 1.4
20-01-2022 20 16.1 15:30 -1.6 7:04 5.4 100.0 80.1 39.5 0.8 54.4 12.0 0.2 1.2
19-01-2022 19 16.6 15:48 -1.0 6:12 5.7 100.0 80.5 41.9 0.8 51.9 11.9 0.0 1.2
18-01-2022 18 16.4 15:00 0.6 3:40 6.6 100.0 78.7 37.8 1.1 49.6 11.9 0.2 1.4
17-01-2022 17 16.1 15:08 0.0 6:00 6.5 100.0 80.8 46.6 1.2 51.5 11.7 0.0 1.3
16-01-2022 16 16.3 15:10 1.3 2:36 7.0 99.0 77.4 39.5 1.0 53.6 11.5 0.0 1.3
15-01-2022 15 16.0 14:48 1.6 6:54 7.3 99.8 79.8 44.7 1.1 47.1 11.2 0.0 1.2
14-01-2022 14 15.9 15:30 2.0 2:56 7.9 98.1 75.2 43.9 1.3 50.9 11.4 0.2 1.3
13-01-2022 13 16.3 15:10 0.8 7:30 7.4 100.0 80.3 41.5 1.2 52.2 10.8 0.0 1.3
12-01-2022 12 17.4 15:04 2.4 7:56 9.0 100.0 85.4 54.3 0.8 44.9 10.6 0.2 1.0
11-01-2022 11 19.5 15:02 3.8 4:46 10.4 100.0 82.5 43.9 1.2 58.8 11.1 0.2 1.4
10-01-2022 10 14.7 15:32 4.4 23:58 9.4 100.0 91.2 73.3 0.5 30.3 5.0 0.0 0.7
09-01-2022 9 15.3 15:00 -1.6 5:16 5.9 100.0 86.9 50.9 0.6 222.1 10.8 0.2 0.8
08-01-2022 8 15.7 14:44 -0.2 5:32 6.9 100.0 82.1 41.1 0.9 54.3 10.6 0.0 1.1
07-01-2022 7 15.7 15:48 -0.2 7:14 6.6 100.0 85.6 44.5 0.7 57.3 11.0 0.2 0.9
06-01-2022 6 16.3 15:24 3.3 23:20 9.6 100.0 80.2 51.4 0.7 126.1 11.2 0.0 0.9
05-01-2022 5 15.7 13:32 4.1 6:46 10.2 99.9 81.7 54.1 1.3 236.7 9.2 0.2 1.1
04-01-2022 4 13.4 14:24 4.3 3:38 9.1 100.0 93.2 68.4 0.8 312.4 2.8 0.8 0.7
03-01-2022 3 21.5 15:22 4.2 6:26 10.4 100.0 86.2 46.1 0.6 48.8 10.5 0.2 1.1
02-01-2022 2 20.3 15:38 3.3 5:40 9.9 100.0 87.6 53.0 0.7 48.1 10.7 0.2 1.0
01-01-2022 1 22.9 16:28 5.2 7:42 11.2 100.0 83.3 37.7 1.0 41.7 10.8 0.0 1.5
31-12-2021 365 21.2 14:24 3.8 6:34 10.8 100.0 85.5 43.5 1.0 44.2 10.8 0.4 1.3
30-12-2021 364 20.5 15:02 5.3 7:24 11.0 100.0 88.1 49.0 0.8 43.9 10.6 0.2 1.1
29-12-2021 363 18.8 15:04 6.6 7:34 11.7 100.0 91.1 64.2 1.0 53.5 10.4 0.2 1.0
28-12-2021 362 20.5 15:20 10.5 23:50 15.4 100.0 92.2 64.4 0.6 228.5 7.8 0.2 0.9
27-12-2021 361 20.3 14:44 14.7 7:20 17.0 100.0 93.9 75.8 2.2 234.2 6.4 0.6 1.1
26-12-2021 360 16.8 22:48 12.5 4:28 14.8 100.0 97.1 85.2 1.9 236.6 2.9 2.8 0.7
25-12-2021 359 16.3 16:24 12.3 3:08 14.3 100.0 97.8 89.2 2.7 215.4 2.5 36.4 0.7
24-12-2021 358 14.5 14:28 12.3 19:10 13.3 100.0 99.9 95.8 0.8 72.8 1.9 28.4 0.5
23-12-2021 357 13.9 19:46 10.6 3:38 12.4 100.0 99.2 87.6 0.8 22.1 2.1 23.2 0.6
22-12-2021 356 14.1 14:56 10.7 23:14 12.9 100.0 100.0 99.2 0.6 35.7 2.0 12.8 0.5
21-12-2021 355 18.3 14:06 10.0 00:28 13.7 100.0 91.7 73.1 1.2 41.5 6.1 14.2 0.9
20-12-2021 354 16.3 14:00 7.9 5:56 11.6 93.1 75.9 57.2 1.0 32.0 5.1 0.0 1.0
19-12-2021 353 20.5 14:02 6.0 7:50 11.4 92.7 73.2 44.1 1.5 59.9 9.7 0.0 1.6
18-12-2021 352 17.8 14:22 3.4 7:32 9.6 97.7 75.9 42.1 1.1 45.7 8.7 0.0 1.2
17-12-2021 351 18.9 14:56 3.0 7:30 10.1 97.7 72.2 37.8 1.3 58.9 9.8 0.0 1.5
16-12-2021 350 18.1 15:02 0.0 6:08 8.0 100.0 75.9 38.7 1.3 53.4 9.1 0.0 1.4
15-12-2021 349 18.1 14:38 0.6 7:18 8.0 100.0 78.8 42.8 1.0 49.0 10.3 0.0 1.2
14-12-2021 348 20.2 15:02 1.8 7:18 9.2 100.0 77.0 34.2 1.0 56.3 10.6 0.0 1.4
13-12-2021 347 20.7 15:14 3.4 7:08 10.6 100.0 76.8 40.9 1.1 47.2 10.6 0.0 1.4
12-12-2021 346 21.8 14:58 5.2 2:10 12.1 100.0 77.1 41.9 1.3 47.3 10.6 0.2 1.6
11-12-2021 345 18.8 15:26 3.5 7:16 10.6 100.0 85.9 55.7 0.7 56.3 10.3 0.0 0.9
10-12-2021 344 17.3 15:52 5.7 1:34 12.0 100.0 85.5 65.1 1.6 235.2 5.3 0.0 1.1
09-12-2021 343 16.3 14:38 1.0 4:30 9.1 100.0 83.9 57.8 1.3 228.1 8.5 0.0 1.1
08-12-2021 342 17.0 12:16 4.8 23:50 11.9 100.0 78.7 43.5 1.9 245.9 8.8 0.6 1.5
07-12-2021 341 18.2 14:50 0.8 3:36 9.8 100.0 81.5 49.0 1.2 247.3 10.5 0.2 1.2
06-12-2021 340 16.8 15:22 -0.3 7:36 7.5 100.0 79.9 47.2 0.5 114.1 10.7 0.0 0.8
05-12-2021 339 17.5 14:38 4.1 3:50 9.7 100.0 77.7 38.1 1.3 244.7 10.7 0.2 1.4
04-12-2021 338 16.8 14:06 -2.1 7:04 8.1 99.2 78.2 52.8 0.7 232.3 10.0 0.0 0.9
03-12-2021 337 16.7 15:22 -2.5 7:12 5.9 98.4 73.6 34.7 0.5 70.9 11.2 0.0 0.9
02-12-2021 336 16.9 13:38 1.7 22:02 10.4 96.9 69.3 36.7 1.1 283.0 9.2 0.0 1.3
01-12-2021 335 16.3 14:44 -1.1 7:10 8.0 100.0 80.0 49.6 1.2 241.7 10.7 0.0 1.2
30-11-2021 334 16.7 13:42 3.8 23:10 8.8 99.3 82.5 48.2 0.4 33.3 10.0 0.0 0.8
29-11-2021 333 17.9 13:56 5.4 23:56 10.5 95.5 77.9 47.4 1.4 233.7 8.6 0.0 1.4
28-11-2021 332 14.8 14:54 -0.1 7:18 7.6 90.2 61.0 32.8 1.1 252.9 11.6 0.0 1.3
27-11-2021 331 16.2 14:56 -1.9 6:44 6.2 100.0 79.5 47.8 1.1 273.2 9.7 0.4 1.2
26-11-2021 330 15.9 15:30 1.4 23:54 8.6 100.0 86.6 49.2 0.4 270.5 8.5 0.4 0.8
25-11-2021 329 12.2 15:30 1.4 6:56 7.5 100.0 90.4 65.5 0.9 214.4 6.7 0.8 0.8
24-11-2021 328 14.3 15:30 0.1 4:28 6.2 100.0 88.5 57.3 0.6 232.5 9.3 0.0 0.8
23-11-2021 327 14.7 13:42 -0.6 5:34 5.7 100.0 88.6 46.8 0.6 173.6 9.3 0.8 0.9
22-11-2021 326 17.4 13:10 5.2 --:-- 12.9 100.0 84.7 60.8 1.7 241.4 6.0 0.0 1.2
21-11-2021 325 19.3 14:28 9.0 3:36 13.2 100.0 89.6 60.3 0.6 23.8 8.2 0.2 1.0
20-11-2021 324 17.9 13:42 11.9 6:42 14.7 98.2 79.7 60.3 1.1 38.9 3.4 0.4 1.1
19-11-2021 323 22.1 12:56 4.5 7:26 14.4 98.1 64.9 38.1 1.5 59.9 10.3 0.0 1.9
18-11-2021 322 21.7 14:28 2.6 3:58 12.1 99.9 70.0 39.6 1.2 65.7 11.1 0.0 1.7
17-11-2021 321 20.0 15:18 1.8 4:18 9.8 99.3 74.0 37.2 1.1 50.4 12.7 0.0 1.6
16-11-2021 320 20.5 14:44 2.4 4:46 9.6 100.0 72.1 27.9 1.1 62.9 13.0 0.0 1.8
15-11-2021 319 21.4 15:24 3.4 4:24 10.9 100.0 76.0 37.6 0.8 62.0 12.9 0.0 1.5
14-11-2021 318 24.0 14:00 5.4 5:44 12.6 100.0 75.7 36.0 0.8 50.2 12.9 0.0 1.7
13-11-2021 317 23.7 14:16 4.2 6:32 12.4 100.0 75.4 34.5 0.8 49.2 13.0 0.0 1.7
12-11-2021 316 21.3 15:28 2.5 7:10 10.3 100.0 78.4 34.6 0.8 49.3 12.5 0.0 1.6
11-11-2021 315 17.5 14:50 3.2 3:10 9.2 100.0 85.2 52.9 0.6 44.2 8.6 0.0 1.1
10-11-2021 314 21.5 15:28 3.4 6:46 10.6 97.9 76.4 35.7 0.7 43.8 13.7 0.0 1.5
09-11-2021 313 22.0 14:58 2.0 6:54 10.6 100.0 75.8 34.1 0.5 47.9 13.8 0.0 1.4
08-11-2021 312 21.6 14:50 0.7 5:44 9.9 100.0 75.5 37.7 0.6 81.5 14.0 0.0 1.5
07-11-2021 311 19.0 15:58 2.0 2:40 9.2 97.7 69.3 26.3 0.8 51.6 14.5 0.0 1.6
06-11-2021 310 18.5 14:50 2.2 6:36 9.2 98.5 72.0 32.7 0.7 66.8 14.5 0.0 1.5
05-11-2021 309 19.1 15:26 3.2 7:04 10.2 99.9 73.1 34.6 0.7 56.9 14.4 0.2 1.5
04-11-2021 308 18.9 14:38 3.7 6:08 10.1 100.0 78.2 36.6 0.5 259.5 14.1 0.0 1.4
03-11-2021 307 19.4 14:48 6.0 23:46 13.8 100.0 74.8 38.5 1.3 273.8 13.0 0.2 1.9
02-11-2021 306 20.7 14:20 12.6 23:28 16.2 100.0 77.1 53.3 0.9 245.2 13.4 0.0 1.7
01-11-2021 305 25.1 15:02 17.9 21:28 20.9 100.0 88.8 59.1 2.2 246.4 8.8 3.8 2.1
31-10-2021 304 24.1 12:10 19.9 23:18 21.3 100.0 93.5 77.2 3.6 237.0 5.9 3.2 1.6
30-10-2021 303 22.7 13:44 18.8 --:-- 20.4 100.0 96.6 84.4 5.1 223.0 4.5 15.0 1.3
29-10-2021 302 23.7 12:10 11.5 3:44 17.0 100.0 82.3 50.2 1.7 246.5 5.6 4.8 1.9
28-10-2021 301 27.3 15:44 8.8 6:58 16.4 94.5 67.5 30.7 0.7 48.7 15.1 0.0 2.2
27-10-2021 300 26.7 14:02 7.5 7:08 16.0 96.0 65.0 29.9 0.9 55.4 15.7 0.0 2.5
26-10-2021 299 25.7 15:42 10.3 7:22 16.2 90.2 65.6 28.9 0.8 41.9 11.0 0.0 2.1
25-10-2021 298 26.8 14:28 8.4 5:48 16.5 91.1 62.6 27.4 0.8 52.2 15.4 0.0 2.4
24-10-2021 297 26.9 15:02 9.9 6:00 16.7 92.1 64.6 27.4 0.8 47.3 16.2 0.0 2.5
23-10-2021 296 27.1 15:34 9.8 6:24 17.0 89.9 66.3 34.8 0.7 44.3 16.1 0.0 2.4
22-10-2021 295 26.4 14:44 9.7 6:20 17.7 89.5 60.7 35.8 0.6 212.2 16.6 0.0 2.3
21-10-2021 294 28.1 15:18 11.2 6:52 19.3 95.6 60.5 24.8 0.8 20.8 15.5 0.0 2.6
20-10-2021 293 30.4 14:58 12.8 5:46 20.0 90.7 61.7 24.9 0.7 51.1 16.2 0.0 2.7
19-10-2021 292 30.7 14:34 14.0 5:02 21.5 93.8 60.9 30.5 1.3 85.7 16.6 0.0 3.4
18-10-2021 291 31.2 14:32 14.6 6:10 22.0 97.6 68.6 35.9 0.5 54.4 16.5 0.0 2.6
17-10-2021 290 29.5 13:28 13.2 6:42 21.2 94.3 60.6 33.0 0.6 34.9 14.9 0.0 2.5
16-10-2021 289 28.8 13:48 11.4 5:28 19.4 91.9 61.9 30.1 0.6 298.2 15.1 0.0 2.5
15-10-2021 288 29.6 15:32 11.7 6:42 18.9 90.5 63.1 27.9 0.7 51.1 17.4 0.0 2.8
14-10-2021 287 29.8 14:46 12.5 2:24 19.7 93.7 64.9 30.2 0.9 64.6 17.5 0.0 3.1
13-10-2021 286 30.6 16:08 12.4 4:54 19.9 93.7 67.1 28.2 0.6 40.5 17.7 0.0 2.8
12-10-2021 285 29.5 16:30 12.8 5:28 20.1 95.3 66.2 32.3 0.9 42.5 17.5 0.0 3.1
11-10-2021 284 30.8 15:10 12.5 5:40 20.7 96.3 61.3 25.0 1.4 68.2 17.5 0.0 3.9
10-10-2021 283 30.2 14:42 14.3 6:40 21.3 95.3 65.9 34.0 0.9 85.7 17.8 0.0 3.2
09-10-2021 282 29.7 15:24 12.7 4:38 20.4 95.2 70.5 38.8 0.6 16.4 18.2 0.0 2.9
08-10-2021 281 32.0 15:42 12.0 4:14 20.7 97.8 64.5 24.3 0.7 6.4 18.9 0.0 3.3
07-10-2021 280 32.4 15:52 12.1 6:06 21.1 94.7 64.0 27.8 0.8 48.5 18.4 0.0 3.4
06-10-2021 279 32.0 15:16 14.7 5:38 22.1 97.0 63.1 25.8 1.1 56.8 19.5 0.0 3.9
05-10-2021 278 27.6 16:10 9.0 5:36 18.2 100.0 70.5 36.6 0.7 71.5 18.4 0.0 2.9
04-10-2021 277 24.8 15:46 9.0 6:24 15.9 100.0 73.4 33.8 0.6 107.3 17.6 0.0 2.6
03-10-2021 276 23.2 16:04 10.7 23:20 17.8 100.0 81.3 50.2 1.3 247.0 8.8 8.0 2.1
02-10-2021 275 31.1 14:46 14.6 6:02 22.2 92.8 60.8 28.3 1.1 248.6 19.3 0.0 3.8
01-10-2021 274 31.2 14:14 13.9 6:38 21.2 92.0 65.3 30.5 0.7 357.0 17.6 0.0 3.3
30-09-2021 273 32.5 13:24 13.3 6:14 22.3 89.3 58.9 28.6 0.7 39.2 18.6 0.0 3.5
29-09-2021 272 33.5 15:56 15.1 3:56 23.6 89.4 52.3 22.0 0.7 50.0 20.8 0.0 3.8
28-09-2021 271 31.5 14:28 11.9 6:04 21.7 96.0 60.8 25.0 0.7 209.4 20.7 0.0 3.6
27-09-2021 270 32.4 15:00 13.1 6:24 21.0 98.0 63.8 18.5 0.5 41.0 21.0 0.0 3.4
26-09-2021 269 31.6 16:16 13.3 6:20 20.9 99.8 68.9 26.4 0.6 45.5 20.8 0.0 3.5
25-09-2021 268 28.0 14:20 14.1 6:06 20.4 100.0 74.5 41.2 0.8 245.0 19.5 0.0 3.3
24-09-2021 267 24.3 16:56 17.3 23:52 21.9 96.6 77.8 46.9 1.0 248.9 6.2 0.2 1.9
23-09-2021 266 32.0 13:12 17.1 3:18 23.4 95.4 68.0 35.3 2.1 85.4 20.4 0.0 5.0
22-09-2021 265 29.7 14:22 15.1 6:02 21.3 100.0 73.0 38.9 1.3 57.4 17.5 0.2 3.7
21-09-2021 264 31.0 14:36 15.3 4:52 21.4 100.0 71.1 33.5 1.2 50.1 20.1 2.4 4.2
20-09-2021 263 33.2 15:12 13.9 6:28 22.6 98.0 61.3 21.4 0.7 301.9 22.1 0.0 4.1
19-09-2021 262 33.4 16:22 14.0 5:06 23.1 100.0 60.8 25.7 0.7 56.6 22.4 0.0 4.1
18-09-2021 261 31.3 14:36 16.9 5:10 23.3 99.6 66.1 29.2 1.0 228.2 22.5 0.0 4.3
17-09-2021 260 32.0 14:40 16.8 5:02 23.6 100.0 72.8 33.9 0.7 273.8 22.0 0.0 4.1
16-09-2021 259 29.4 14:58 17.9 2:06 22.2 100.0 83.0 39.4 0.5 236.1 16.2 0.0 3.0
15-09-2021 258 27.4 14:36 19.1 5:34 22.0 100.0 85.0 54.7 1.0 215.5 17.3 0.2 3.3
14-09-2021 257 22.9 16:18 19.1 22:52 20.6 100.0 98.2 86.2 1.0 58.6 4.5 33.0 1.2
13-09-2021 256 30.1 12:24 20.9 4:46 24.3 96.5 63.9 38.0 1.1 62.2 6.6 2.4 2.5
12-09-2021 255 37.8 14:30 16.1 6:02 26.9 82.5 45.4 16.1 1.1 0.0 21.6 0.0 5.3
11-09-2021 254 36.0 15:34 16.8 5:40 26.0 84.7 50.1 21.2 0.8 301.5 22.4 0.0 4.7
10-09-2021 253 34.2 15:48 15.5 6:14 24.8 92.5 56.6 26.0 1.0 227.4 22.9 0.0 4.8
09-09-2021 252 31.2 15:40 17.3 6:14 23.7 90.6 63.7 37.6 1.1 230.3 15.7 0.0 3.7
08-09-2021 251 32.1 15:52 20.1 1:54 25.2 90.2 62.7 30.1 1.9 240.9 21.3 0.0 5.3
07-09-2021 250 35.4 15:24 19.5 6:18 27.2 80.4 55.5 26.4 2.2 242.1 21.6 0.0 6.3
06-09-2021 249 37.0 15:48 24.0 6:34 30.7 65.6 34.9 20.4 2.2 127.6 10.8 0.0 5.6
05-09-2021 248 39.1 15:00 17.3 5:54 28.6 80.4 44.2 17.1 1.2 99.5 23.7 0.0 5.9
04-09-2021 247 36.6 15:48 16.9 5:56 26.5 81.7 49.3 19.9 0.8 305.1 24.2 0.0 5.1
03-09-2021 246 34.7 15:42 15.6 4:44 25.0 86.7 54.3 23.6 0.8 248.2 24.4 0.0 4.9
02-09-2021 245 33.2 15:50 17.3 4:16 24.7 90.2 58.3 26.4 1.3 236.8 23.8 0.0 5.3
01-09-2021 244 32.2 13:46 19.1 6:08 25.8 83.0 56.3 35.3 1.4 245.1 22.4 0.0 5.1
31-08-2021 243 35.9 14:32 16.7 5:52 26.6 87.5 53.3 25.2 1.5 287.4 21.3 0.0 5.6
30-08-2021 242 34.5 16:04 16.4 6:02 25.1 89.8 55.3 26.1 0.8 240.2 25.1 0.0 5.0
29-08-2021 241 32.6 15:52 18.4 5:04 25.0 93.4 63.2 30.9 1.8 240.2 24.7 0.0 5.8
28-08-2021 240 34.2 15:42 17.4 5:16 25.4 94.2 62.3 31.9 2.0 243.7 24.6 0.0 6.2
27-08-2021 239 36.0 13:50 19.3 5:46 27.0 92.2 58.1 29.4 1.5 241.0 24.6 0.0 6.0
26-08-2021 238 37.7 16:00 19.8 6:02 28.6 87.1 54.2 19.7 1.1 266.4 24.9 0.0 5.9
25-08-2021 237 33.1 14:56 22.7 6:34 27.3 98.9 65.7 42.3 1.7 243.1 22.5 0.4 5.3
24-08-2021 236 35.6 14:16 22.2 6:18 28.6 91.3 64.3 40.3 2.0 257.1 22.6 0.0 6.0
23-08-2021 235 40.0 16:10 20.8 4:18 29.8 84.0 51.8 20.2 1.2 254.6 23.2 0.0 6.2
22-08-2021 234 39.3 16:16 19.1 5:28 28.8 73.4 44.2 21.3 0.8 267.3 19.3 0.0 4.9
21-08-2021 233 39.4 15:08 17.6 6:06 28.5 87.8 43.4 11.9 0.9 268.9 25.7 0.0 5.9
20-08-2021 232 36.9 16:02 18.3 4:52 27.2 89.0 54.6 16.5 1.0 242.1 26.3 0.0 5.9
19-08-2021 231 35.4 16:22 18.5 5:24 26.8 93.2 59.4 26.4 1.1 259.5 25.5 0.0 5.7
18-08-2021 230 35.8 15:50 19.0 5:48 27.9 84.3 54.3 31.0 1.8 244.8 25.7 0.0 6.5
17-08-2021 229 37.7 15:32 15.9 4:48 27.7 70.7 41.2 22.1 1.8 253.1 26.7 0.0 7.2
16-08-2021 228 44.3 15:30 18.5 5:54 31.4 82.3 30.6 5.4 0.9 283.7 27.5 0.0 6.7
15-08-2021 227 44.9 14:10 21.5 5:06 32.9 76.0 36.7 10.3 1.0 312.5 23.9 0.0 6.6